Time;durP1;ratioP1;P1;durP2;ratioP2;P2;SDS_P1;SDS_P2;PMS_P1;PMS_P2;Temp;Humidity;BMP_temperature;BMP_pressure;BME280_temperature;BME280_humidity;BME280_pressure;Samples;Min_cycle;Max_cycle;Signal;HPM_P1;HPM_P2
2023/10/17 00:01:11;;;;;;;2.60;2.40;;;5.00;99.90;;;;;;5115163;28;20621;-75
2023/10/17 00:03:37;;;;;;;2.43;2.33;;;4.90;99.90;;;;;;5113289;28;20180;-79
2023/10/17 00:06:06;;;;;;;2.73;2.50;;;5.10;99.90;;;;;;5113610;28;20180;-79
2023/10/17 00:08:33;;;;;;;2.87;2.67;;;5.10;99.90;;;;;;5113234;28;20633;-79
2023/10/17 00:11:07;;;;;;;2.63;2.43;;;5.10;99.90;;;;;;5113890;28;20176;-76
2023/10/17 00:13:38;;;;;;;2.73;2.57;;;5.00;99.90;;;;;;5115282;28;20160;-76
2023/10/17 00:16:12;;;;;;;2.60;2.40;;;5.00;99.90;;;;;;5113663;28;20194;-76
2023/10/17 00:18:39;;;;;;;2.30;2.20;;;5.00;99.90;;;;;;5114732;28;20172;-75
2023/10/17 00:21:22;;;;;;;2.93;2.27;;;4.90;99.90;;;;;;5104073;28;20283;-77
2023/10/17 00:23:50;;;;;;;2.50;2.30;;;4.90;99.90;;;;;;5112500;28;20170;-76
2023/10/17 00:26:18;;;;;;;2.43;2.33;;;5.00;99.90;;;;;;5114765;28;20219;-78
2023/10/17 00:28:46;;;;;;;2.63;2.53;;;5.00;99.90;;;;;;5113069;28;20170;-77
2023/10/17 00:31:12;;;;;;;2.77;2.57;;;5.10;99.90;;;;;;5094865;28;20181;-78
2023/10/17 00:33:41;;;;;;;3.43;2.53;;;5.00;99.90;;;;;;5116027;28;20166;-77
2023/10/17 00:36:14;;;;;;;3.43;3.10;;;4.90;99.90;;;;;;5119081;28;20220;-79
2023/10/17 00:38:43;;;;;;;3.33;3.03;;;4.80;99.90;;;;;;5113420;28;20159;-77
2023/10/17 00:41:10;;;;;;;4.87;2.70;;;4.80;99.90;;;;;;5112723;28;20166;-80
2023/10/17 00:43:37;;;;;;;6.00;2.60;;;4.80;99.90;;;;;;5112739;28;20237;-79
2023/10/17 00:46:07;;;;;;;2.70;2.50;;;4.70;99.90;;;;;;5112547;28;20185;-79
2023/10/17 00:48:34;;;;;;;2.50;2.30;;;4.60;99.90;;;;;;5112955;28;20237;-78
2023/10/17 00:51:09;;;;;;;2.63;2.47;;;4.80;99.90;;;;;;5113050;28;20583;-78
2023/10/17 00:53:40;;;;;;;2.80;2.60;;;4.70;99.90;;;;;;5113472;28;20174;-79
2023/10/17 00:56:07;;;;;;;2.50;2.40;;;4.70;99.90;;;;;;5112661;28;20619;-79
2023/10/17 00:58:34;;;;;;;3.73;2.47;;;4.60;99.90;;;;;;5113059;28;20173;-79
2023/10/17 01:03:44;;;;;;;2.30;2.20;;;4.70;99.90;;;;;;5113771;28;20205;-79
2023/10/17 01:11:43;;;;;;;2.60;2.40;;;4.90;99.90;;;;;;5113221;28;20172;-78
2023/10/17 01:14:09;;;;;;;3.20;2.77;;;4.90;99.90;;;;;;5112596;28;20564;-78
2023/10/17 01:16:35;;;;;;;2.43;2.27;;;4.80;99.90;;;;;;5114901;28;20564;-79
2023/10/17 01:19:10;;;;;;;3.23;2.93;;;4.90;99.90;;;;;;5116229;28;20238;-78
2023/10/17 01:21:36;;;;;;;2.37;2.20;;;5.00;99.90;;;;;;5116522;28;20154;-79
2023/10/17 01:24:05;;;;;;;2.50;2.30;;;4.90;99.90;;;;;;5116984;28;20249;-79
2023/10/17 01:26:30;;;;;;;2.37;2.27;;;5.00;99.90;;;;;;5116746;28;20696;-79
2023/10/17 01:28:56;;;;;;;2.80;2.60;;;5.00;99.90;;;;;;5115934;28;20200;-79
2023/10/17 01:31:22;;;;;;;2.17;2.07;;;5.00;99.90;;;;;;5115925;28;20240;-78
2023/10/17 01:33:59;;;;;;;3.00;2.57;;;5.00;99.90;;;;;;5116633;28;20178;-78
2023/10/17 01:36:26;;;;;;;2.80;2.60;;;5.00;99.90;;;;;;5119328;28;20205;-78
2023/10/17 01:38:52;;;;;;;2.60;2.43;;;4.90;99.90;;;;;;5118881;28;20175;-76
2023/10/17 01:41:21;;;;;;;3.33;2.10;;;4.80;99.90;;;;;;5129045;28;20187;-77
2023/10/17 01:43:47;;;;;;;2.97;2.40;;;4.90;99.90;;;;;;5126002;28;20177;-76
2023/10/17 01:46:21;;;;;;;2.70;2.50;;;4.80;99.90;;;;;;5122547;28;20203;-77
2023/10/17 01:48:48;;;;;;;2.23;2.13;;;4.80;99.90;;;;;;5117642;28;20677;-78
2023/10/17 01:51:15;;;;;;;2.17;2.07;;;4.80;99.90;;;;;;5118551;28;20604;-76
2023/10/17 01:53:43;;;;;;;2.67;2.47;;;4.60;99.90;;;;;;5101300;28;20541;-77
2023/10/17 01:56:20;;;;;;;2.10;2.00;;;4.70;99.90;;;;;;5124366;28;20224;-79
2023/10/17 01:58:50;;;;;;;2.30;2.17;;;4.60;99.90;;;;;;5100756;28;20614;-79
2023/10/17 02:01:31;;;;;;;2.40;2.20;;;4.70;99.90;;;;;;5098253;28;20552;-79
2023/10/17 02:04:04;;;;;;;2.10;2.00;;;4.60;99.90;;;;;;5097417;28;20190;-76
2023/10/17 02:06:34;;;;;;;2.73;2.30;;;4.60;99.90;;;;;;5114735;28;20193;-78
2023/10/17 02:09:00;;;;;;;2.60;2.40;;;4.70;99.90;;;;;;5115004;28;20173;-78
2023/10/17 02:11:26;;;;;;;2.40;2.30;;;4.80;99.90;;;;;;5114985;28;20201;-80
2023/10/17 02:13:56;;;;;;;2.20;2.10;;;4.80;99.90;;;;;;5115524;28;20265;-79
2023/10/17 02:16:32;;;;;;;2.03;1.93;;;4.90;99.90;;;;;;5115261;28;20262;-79
2023/10/17 02:18:58;;;;;;;2.60;2.40;;;4.80;99.90;;;;;;5115426;28;20161;-79
2023/10/17 02:21:27;;;;;;;2.50;2.30;;;4.80;99.90;;;;;;5096269;28;20286;-79
2023/10/17 02:23:53;;;;;;;3.17;2.03;;;4.70;99.90;;;;;;5094800;28;20249;-80
2023/10/17 02:26:25;;;;;;;2.40;2.30;;;4.70;99.90;;;;;;5094435;28;20177;-79
2023/10/17 02:28:53;;;;;;;2.40;2.30;;;4.60;99.90;;;;;;5094404;28;20159;-79
2023/10/17 02:31:40;;;;;;;2.30;2.20;;;4.60;99.90;;;;;;5094881;28;20171;-76
2023/10/17 02:34:09;;;;;;;2.30;2.10;;;4.60;99.90;;;;;;5099816;28;20195;-77
2023/10/17 02:36:35;;;;;;;1.80;1.70;;;4.40;99.90;;;;;;5097661;28;20232;-79
2023/10/17 02:39:03;;;;;;;2.63;2.43;;;4.70;99.90;;;;;;5094783;28;20231;-78
2023/10/17 02:41:31;;;;;;;4.20;2.33;;;4.70;99.90;;;;;;5094575;28;20170;-79
2023/10/17 02:43:57;;;;;;;2.50;2.30;;;4.70;99.90;;;;;;5095262;28;20630;-78
2023/10/17 02:46:27;;;;;;;2.30;2.20;;;4.60;99.90;;;;;;5094225;28;20178;-79
2023/10/17 02:48:56;;;;;;;2.10;2.00;;;4.70;99.90;;;;;;5093930;28;20164;-78
2023/10/17 02:53:52;;;;;;;2.23;2.03;;;4.70;99.90;;;;;;5094178;28;20187;-79
2023/10/17 02:56:19;;;;;;;2.50;2.40;;;4.60;99.90;;;;;;5094442;28;20199;-79
2023/10/17 02:58:50;;;;;;;1.93;1.83;;;4.50;99.90;;;;;;5075893;28;20201;-80
2023/10/17 03:01:22;;;;;;;2.57;2.47;;;4.50;99.90;;;;;;5094333;28;20177;-79
2023/10/17 03:03:51;;;;;;;2.63;2.00;;;4.60;99.90;;;;;;5093965;28;20559;-79
2023/10/17 03:06:20;;;;;;;2.67;2.03;;;4.80;99.90;;;;;;5075704;28;20202;-77
2023/10/17 03:08:51;;;;;;;2.30;2.20;;;4.80;99.90;;;;;;5094819;28;20178;-76
2023/10/17 03:12:07;;;;;;;3.80;2.20;;;4.80;99.90;;;;;;5093382;28;20188;-78
2023/10/17 03:14:19;;;;;;;2.57;2.37;;;4.80;99.90;;;;;;5085997;28;20335;-77
2023/10/17 03:16:52;;;;;;;2.83;2.43;;;4.80;99.90;;;;;;5102433;28;20201;-78
2023/10/17 03:19:26;;;;;;;4.90;2.40;;;4.60;99.90;;;;;;5080006;28;20224;-79
2023/10/17 03:21:58;;;;;;;2.67;2.47;;;4.70;99.90;;;;;;5075154;28;20159;-77
2023/10/17 03:24:38;;;;;;;2.17;2.07;;;4.70;99.90;;;;;;5073600;28;20175;-77
2023/10/17 03:27:27;;;;;;;2.20;2.10;;;4.70;99.90;;;;;;5076070;28;20234;-77
2023/10/17 03:29:53;;;;;;;2.60;2.40;;;4.70;99.90;;;;;;5075428;28;20221;-78
2023/10/17 03:32:22;;;;;;;2.17;2.07;;;4.80;99.90;;;;;;5076155;28;20176;-77
2023/10/17 03:34:56;;;;;;;2.33;2.13;;;4.80;99.90;;;;;;5073821;28;20179;-78
2023/10/17 03:39:55;;;;;;;2.20;2.10;;;4.90;99.90;;;;;;5072713;28;20203;-79
2023/10/17 03:45:25;;;;;;;2.83;2.30;;;4.70;99.90;;;;;;5075449;28;20245;-78
2023/10/17 03:48:13;;;;;;;2.33;1.90;;;4.60;99.90;;;;;;5055127;28;20183;-80
2023/10/17 03:50:57;;;;;;;2.83;2.50;;;4.60;99.90;;;;;;5073338;28;20152;-79
2023/10/17 03:53:29;;;;;;;2.50;2.40;;;4.50;99.90;;;;;;5073634;28;20163;-77
2023/10/17 03:56:00;;;;;;;3.17;2.50;;;4.40;99.90;;;;;;5074978;28;20213;-79
2023/10/17 03:58:33;;;;;;;3.03;2.73;;;4.40;99.90;;;;;;5055677;28;20159;-78
2023/10/17 04:01:05;;;;;;;2.33;2.13;;;4.60;99.90;;;;;;5073254;28;20167;-77
2023/10/17 04:03:31;;;;;;;2.73;2.50;;;4.40;99.90;;;;;;5073942;28;20579;-78
2023/10/17 04:06:02;;;;;;;3.37;2.73;;;4.40;99.90;;;;;;5072427;28;20190;-79
2023/10/17 04:08:36;;;;;;;3.37;2.40;;;4.50;99.90;;;;;;5072854;28;20175;-80
2023/10/17 04:13:50;;;;;;;2.67;2.47;;;4.30;99.90;;;;;;5072515;28;20165;-78
2023/10/17 04:16:26;;;;;;;2.50;2.33;;;4.40;99.90;;;;;;5072526;28;20214;-79
2023/10/17 04:19:00;;;;;;;2.70;2.50;;;4.30;99.90;;;;;;5072674;28;20155;-78
2023/10/17 04:21:30;;;;;;;2.93;2.67;;;4.40;99.90;;;;;;5092716;28;20173;-76
2023/10/17 04:23:59;;;;;;;3.03;2.70;;;4.50;99.90;;;;;;5092420;28;20212;-78
2023/10/17 04:26:29;;;;;;;4.57;2.83;;;4.40;99.90;;;;;;5075304;28;20238;-79
2023/10/17 04:29:00;;;;;;;4.23;3.40;;;4.50;99.90;;;;;;5094208;28;20164;-78
2023/10/17 04:31:28;;;;;;;3.80;3.40;;;4.30;99.90;;;;;;5075026;28;20172;-76
2023/10/17 04:34:07;;;;;;;6.47;3.33;;;5.50;99.90;;;;;;5092306;28;20264;-79
2023/10/17 04:36:39;;;;;;;2.73;2.50;;;4.50;99.90;;;;;;5093253;28;20209;-79
2023/10/17 04:39:18;;;;;;;4.10;2.60;;;4.70;99.90;;;;;;5104969;28;20540;-75
2023/10/17 04:44:19;;;;;;;2.63;2.40;;;4.30;99.90;;;;;;5092610;28;20183;-76
2023/10/17 04:46:57;;;;;;;2.97;2.40;;;4.40;99.90;;;;;;5093529;28;20183;-78
2023/10/17 04:49:24;;;;;;;5.10;2.80;;;4.30;99.90;;;;;;5092927;28;20495;-78
2023/10/17 04:52:02;;;;;;;2.60;2.40;;;4.20;99.90;;;;;;5095731;28;20259;-78
2023/10/17 04:56:59;;;;;;;3.63;2.70;;;4.30;99.90;;;;;;5102454;28;20199;-77
2023/10/17 04:59:51;;;;;;;2.77;2.57;;;4.30;99.90;;;;;;5097735;28;20174;-78
2023/10/17 05:07:30;;;;;;;5.50;2.53;;;4.50;99.90;;;;;;5097834;28;20175;-79
2023/10/17 06:18:32;;;;;;;4.53;3.43;;;5.10;99.90;;;;;;5073433;28;20243;-75
2023/10/17 06:34:17;;;;;;;5.37;3.40;;;4.90;99.90;;;;;;5085159;28;20164;-76
2023/10/17 06:36:44;;;;;;;4.60;3.60;;;5.00;99.90;;;;;;5074570;28;20732;-79
2023/10/17 06:39:19;;;;;;;3.80;3.40;;;5.10;99.90;;;;;;5074649;28;20174;-79
2023/10/17 06:41:46;;;;;;;3.30;2.83;;;5.00;99.90;;;;;;5074402;28;20309;-80
2023/10/17 06:44:21;;;;;;;4.50;3.30;;;5.00;99.90;;;;;;5074029;28;20630;-78
2023/10/17 06:47:08;;;;;;;4.73;3.63;;;5.10;99.90;;;;;;5074262;28;20235;-77
2023/10/17 06:52:40;;;;;;;6.00;3.43;;;5.10;99.90;;;;;;5074575;28;20171;-78
2023/10/17 06:54:53;;;;;;;4.87;3.60;;;5.30;99.90;;;;;;5070855;28;20244;-77
2023/10/17 06:57:24;;;;;;;5.87;3.83;;;5.30;99.90;;;;;;5079753;28;20527;-74
2023/10/17 06:59:52;;;;;;;6.27;3.60;;;5.30;99.90;;;;;;5082324;28;20155;-78
2023/10/17 07:02:27;;;;;;;4.33;3.33;;;5.30;99.90;;;;;;5075058;28;20175;-78
2023/10/17 07:05:00;;;;;;;3.83;3.33;;;5.30;99.90;;;;;;5076083;28;20726;-78
2023/10/17 07:07:32;;;;;;;7.50;3.60;;;4.70;99.90;;;;;;5080037;28;20282;-78
2023/10/17 07:12:47;;;;;;;6.70;3.47;;;5.40;99.90;;;;;;5073449;28;20171;-78
2023/10/17 07:15:25;;;;;;;4.03;3.40;;;5.40;99.90;;;;;;5073984;28;20924;-76
2023/10/17 07:23:26;;;;;;;6.63;3.30;;;5.60;99.90;;;;;;5074246;28;20169;-78
2023/10/17 07:25:56;;;;;;;5.20;3.93;;;5.50;99.90;;;;;;5077032;28;20726;-76
2023/10/17 07:28:22;;;;;;;5.27;3.57;;;5.60;99.90;;;;;;5077314;28;20160;-78
2023/10/17 07:30:57;;;;;;;5.50;4.23;;;5.70;99.90;;;;;;5073822;28;20235;-79
2023/10/17 07:33:24;;;;;;;3.63;3.40;;;5.60;99.90;;;;;;5073999;28;20175;-76
2023/10/17 07:35:58;;;;;;;4.90;3.80;;;5.60;99.90;;;;;;5073122;28;20202;-79
2023/10/17 07:38:30;;;;;;;3.53;3.23;;;5.60;99.90;;;;;;5072997;28;20171;-76
2023/10/17 07:40:58;;;;;;;4.70;3.70;;;5.70;99.90;;;;;;5073360;28;20152;-77
2023/10/17 07:43:24;;;;;;;3.77;3.33;;;5.70;99.90;;;;;;5054835;28;20643;-77
2023/10/17 07:46:05;;;;;;;4.67;3.63;;;5.90;99.90;;;;;;5073086;28;20206;-79
2023/10/17 07:48:31;;;;;;;6.60;3.53;;;6.00;99.90;;;;;;5073312;28;20176;-78
2023/10/17 07:50:57;;;;;;;5.30;3.47;;;6.00;99.90;;;;;;5072677;28;20180;-76
2023/10/17 07:53:23;;;;;;;4.00;3.60;;;6.10;99.90;;;;;;5077033;28;20182;-77
2023/10/17 07:55:52;;;;;;;3.70;3.37;;;6.10;99.90;;;;;;5073058;28;20557;-77
2023/10/17 08:01:07;;;;;;;3.27;2.97;;;6.40;99.90;;;;;;5073219;28;20166;-79
2023/10/17 08:03:34;;;;;;;3.83;2.97;;;6.40;99.90;;;;;;5072487;28;20199;-79
2023/10/17 08:06:05;;;;;;;7.63;3.70;;;6.40;99.90;;;;;;5072639;28;20187;-78
2023/10/17 08:08:41;;;;;;;4.00;3.17;;;6.60;99.90;;;;;;5074461;28;20167;-77
2023/10/17 08:11:20;;;;;;;5.13;3.37;;;6.60;99.90;;;;;;5076831;28;20213;-79
2023/10/17 08:13:46;;;;;;;3.40;3.10;;;6.70;99.90;;;;;;5073834;28;20247;-78
2023/10/17 08:16:24;;;;;;;3.70;3.40;;;6.90;99.90;;;;;;5072595;28;20721;-77
2023/10/17 08:18:58;;;;;;;5.07;3.17;;;6.90;99.90;;;;;;5054799;28;20184;-79
2023/10/17 08:21:35;;;;;;;3.13;2.87;;;7.70;99.90;;;;;;5073166;28;20210;-78
2023/10/17 08:24:02;;;;;;;4.30;3.30;;;7.00;99.90;;;;;;5074253;28;20200;-77
2023/10/17 08:26:33;;;;;;;3.47;3.10;;;7.10;99.90;;;;;;5077266;28;20232;-77
2023/10/17 08:29:00;;;;;;;3.70;2.87;;;7.20;99.90;;;;;;5059147;28;20166;-77
2023/10/17 08:31:27;;;;;;;3.53;3.00;;;7.40;99.90;;;;;;5076281;28;20168;-79
2023/10/17 08:36:45;;;;;;;3.77;3.37;;;7.70;99.90;;;;;;5076560;28;20192;-75
2023/10/17 08:41:57;;;;;;;5.13;3.10;;;7.80;99.90;;;;;;5080327;28;20165;-79
2023/10/17 08:44:29;;;;;;;5.63;3.17;;;7.80;99.90;;;;;;5077391;28;20196;-78
2023/10/17 08:46:56;;;;;;;4.20;3.17;;;7.80;99.90;;;;;;5077876;28;20178;-78
2023/10/17 08:49:22;;;;;;;6.13;4.00;;;8.00;99.90;;;;;;5079422;28;20204;-78
2023/10/17 08:51:49;;;;;;;3.27;3.03;;;8.10;99.90;;;;;;5089931;28;20254;-77
2023/10/17 08:54:18;;;;;;;6.97;3.90;;;8.00;99.90;;;;;;5091261;28;20181;-81
2023/10/17 08:56:48;;;;;;;5.77;3.50;;;8.00;99.90;;;;;;5063768;28;20221;-78
2023/10/17 09:02:14;;;;;;;4.13;3.73;;;8.10;99.90;;;;;;5078584;28;20224;-78
2023/10/17 09:04:43;;;;;;;4.10;3.80;;;8.10;99.90;;;;;;5076325;28;20171;-79
2023/10/17 09:07:09;;;;;;;4.00;3.70;;;8.20;99.90;;;;;;5076389;28;20174;-79
2023/10/17 09:09:35;;;;;;;9.13;4.00;;;8.40;99.90;;;;;;5076353;28;20529;-78
2023/10/17 09:12:01;;;;;;;3.90;3.60;;;8.50;99.90;;;;;;5076373;28;20174;-78
2023/10/17 09:14:35;;;;;;;4.83;3.90;;;8.60;99.90;;;;;;5075777;28;20186;-78
2023/10/17 09:17:11;;;;;;;4.20;3.80;;;8.60;99.90;;;;;;5057706;28;20214;-78
2023/10/17 09:19:51;;;;;;;4.60;3.80;;;8.80;99.90;;;;;;5069982;28;20305;-76
2023/10/17 09:22:24;;;;;;;4.13;3.73;;;8.90;99.90;;;;;;5058577;28;20211;-77
2023/10/17 09:24:50;;;;;;;4.10;3.50;;;9.10;99.90;;;;;;5068168;28;20161;-79
2023/10/17 09:27:17;;;;;;;4.63;4.23;;;9.20;99.90;;;;;;5038104;28;20254;-77
2023/10/17 09:29:49;;;;;;;4.53;4.13;;;9.20;99.90;;;;;;5057585;28;20176;-79
2023/10/17 09:32:36;;;;;;;4.70;4.30;;;9.30;99.90;;;;;;5054647;28;20666;-77
2023/10/17 09:35:16;;;;;;;4.60;4.20;;;9.30;99.90;;;;;;5054854;28;20173;-78
2023/10/17 09:37:44;;;;;;;4.33;3.93;;;9.50;99.90;;;;;;5054457;28;20164;-76
2023/10/17 09:40:35;;;;;;;7.33;3.90;;;9.60;99.90;;;;;;5055581;28;20172;-80
2023/10/17 09:43:01;;;;;;;4.93;3.60;;;9.60;99.90;;;;;;5054955;28;20190;-76
2023/10/17 09:45:33;;;;;;;4.70;4.30;;;9.60;99.90;;;;;;5037647;28;20643;-77
2023/10/17 09:48:04;;;;;;;5.37;4.20;;;9.50;99.90;;;;;;5055208;28;20173;-76
2023/10/17 09:50:34;;;;;;;4.93;4.50;;;9.40;99.90;;;;;;5054767;28;20586;-78
2023/10/17 09:53:13;;;;;;;4.60;4.20;;;9.40;99.90;;;;;;5054790;28;20224;-77
2023/10/17 09:55:46;;;;;;;5.03;4.10;;;9.40;99.90;;;;;;5054726;28;20628;-77
2023/10/17 09:58:17;;;;;;;4.50;4.10;;;9.50;99.90;;;;;;5056233;28;20583;-79
2023/10/17 10:00:50;;;;;;;4.23;3.90;;;9.50;99.90;;;;;;5058468;28;20192;-78
2023/10/17 10:03:17;;;;;;;4.67;4.00;;;9.50;99.90;;;;;;5049273;28;20168;-77
2023/10/17 10:05:43;;;;;;;4.27;3.87;;;9.70;99.90;;;;;;5056449;28;20216;-75
2023/10/17 10:08:34;;;;;;;4.00;3.70;;;9.90;99.90;;;;;;5055718;28;20194;-79
2023/10/17 10:11:01;;;;;;;7.33;3.23;;;9.90;99.90;;;;;;5054919;28;20550;-78
2023/10/17 10:13:27;;;;;;;4.70;3.57;;;9.90;99.90;;;;;;5054874;28;20186;-79
2023/10/17 10:16:04;;;;;;;3.67;3.37;;;9.90;99.90;;;;;;5054058;28;20801;-77
2023/10/17 10:18:35;;;;;;;3.90;3.20;;;10.20;99.90;;;;;;5054938;28;20171;-77
2023/10/17 10:21:08;;;;;;;3.80;3.30;;;10.30;99.90;;;;;;5074221;28;20265;-76
2023/10/17 10:23:41;;;;;;;3.83;3.30;;;10.30;99.90;;;;;;5074658;28;20185;-76
2023/10/17 10:26:19;;;;;;;3.90;3.60;;;10.40;99.90;;;;;;5058514;28;20184;-75
2023/10/17 10:28:52;;;;;;;3.23;2.93;;;10.40;99.90;;;;;;5083974;28;20166;-77
2023/10/17 10:31:26;;;;;;;3.40;3.10;;;10.60;99.90;;;;;;5074630;28;20158;-80
2023/10/17 10:33:58;;;;;;;2.80;2.60;;;10.70;99.90;;;;;;5074270;28;20175;-77
2023/10/17 10:36:24;;;;;;;2.90;2.70;;;10.70;99.90;;;;;;5074643;28;20217;-79
2023/10/17 10:38:55;;;;;;;2.87;2.67;;;10.80;99.90;;;;;;5076051;28;20693;-77
2023/10/17 10:41:22;;;;;;;2.60;2.50;;;10.80;99.90;;;;;;5076732;28;20159;-78
2023/10/17 10:43:58;;;;;;;2.67;2.40;;;10.90;99.90;;;;;;5076421;28;20225;-78
2023/10/17 10:46:28;;;;;;;2.37;2.27;;;11.00;99.90;;;;;;5074372;28;20253;-77
2023/10/17 10:48:54;;;;;;;2.83;2.57;;;11.10;99.90;;;;;;5072910;28;20221;-79
2023/10/17 10:51:26;;;;;;;3.47;2.33;;;11.10;99.90;;;;;;5074602;28;20210;-77
2023/10/17 10:53:56;;;;;;;2.47;2.27;;;11.20;99.90;;;;;;5074393;28;20156;-75
2023/10/17 10:56:26;;;;;;;2.83;2.03;;;11.20;99.90;;;;;;5074097;28;20562;-78
2023/10/17 10:58:57;;;;;;;2.10;1.93;;;11.20;99.90;;;;;;5068761;28;20280;-78
2023/10/17 11:01:25;;;;;;;2.43;2.23;;;11.30;99.90;;;;;;5090024;28;20182;-78
2023/10/17 11:03:52;;;;;;;2.07;1.97;;;11.30;99.90;;;;;;5072810;28;20179;-78
2023/10/17 11:06:29;;;;;;;4.80;4.23;;;11.40;99.90;;;;;;5072763;28;20191;-78
2023/10/17 11:08:55;;;;;;;4.80;4.30;;;11.40;99.90;;;;;;5073462;28;20185;-78
2023/10/17 11:11:21;;;;;;;4.50;2.13;;;11.40;99.90;;;;;;5073251;28;20623;-78
2023/10/17 11:13:49;;;;;;;1.70;1.70;;;11.40;99.90;;;;;;5073418;28;20208;-79
2023/10/17 11:16:21;;;;;;;1.93;1.83;;;11.40;99.90;;;;;;5073777;28;20652;-78
2023/10/17 11:18:47;;;;;;;1.93;1.83;;;11.40;99.90;;;;;;5078014;28;20561;-76
2023/10/17 11:21:16;;;;;;;2.20;2.00;;;11.40;99.90;;;;;;5077528;28;20227;-78
2023/10/17 11:23:46;;;;;;;2.10;1.90;;;11.40;99.90;;;;;;5085789;28;20172;-77
2023/10/17 11:26:13;;;;;;;2.50;2.30;;;11.40;99.90;;;;;;5073994;28;20225;-79
2023/10/17 11:28:42;;;;;;;2.20;2.10;;;11.40;99.90;;;;;;5073240;28;20618;-78
2023/10/17 11:31:21;;;;;;;3.40;2.37;;;11.30;99.90;;;;;;5073113;28;20186;-76
2023/10/17 11:33:58;;;;;;;2.53;2.33;;;11.40;99.90;;;;;;5073050;28;20170;-79
2023/10/17 11:36:25;;;;;;;2.50;2.30;;;11.50;99.90;;;;;;5073451;28;20226;-80
2023/10/17 11:38:58;;;;;;;2.47;2.30;;;11.60;99.90;;;;;;5073105;28;20175;-76
2023/10/17 11:41:40;;;;;;;1.83;1.73;;;11.50;99.90;;;;;;5073378;28;20175;-78
2023/10/17 11:44:07;;;;;;;2.10;1.90;;;11.50;99.90;;;;;;5073889;28;20166;-78
2023/10/17 11:46:35;;;;;;;2.27;2.07;;;11.50;99.90;;;;;;5074333;28;20214;-77
2023/10/17 11:49:26;;;;;;;3.00;2.20;;;11.70;99.90;;;;;;5074910;28;20259;-77
2023/10/17 11:52:09;;;;;;;3.33;2.10;;;11.70;99.90;;;;;;5041255;28;20189;-78
2023/10/17 11:54:55;;;;;;;2.07;1.97;;;11.80;99.90;;;;;;5073401;28;20662;-77
2023/10/17 11:57:25;;;;;;;2.20;2.00;;;11.80;99.90;;;;;;5073126;28;20210;-79
2023/10/17 11:59:58;;;;;;;6.57;5.87;;;11.70;99.90;;;;;;5072763;28;20177;-78
2023/10/17 12:02:25;;;;;;;2.80;2.60;;;11.70;99.90;;;;;;5072560;28;20268;-76
2023/10/17 12:04:51;;;;;;;2.43;2.23;;;11.70;99.90;;;;;;5072968;28;20204;-78
2023/10/17 12:07:19;;;;;;;2.47;2.20;;;11.60;99.90;;;;;;5073750;28;20249;-76
2023/10/17 12:09:45;;;;;;;2.50;2.10;;;11.30;99.90;;;;;;5056354;28;20542;-76
2023/10/17 12:12:11;;;;;;;2.17;2.07;;;11.10;99.90;;;;;;5058423;28;20182;-76
2023/10/17 12:14:37;;;;;;;2.83;1.87;;;11.10;99.90;;;;;;5072890;28;20233;-77
2023/10/17 12:17:08;;;;;;;2.03;1.93;;;11.20;99.90;;;;;;5072698;28;20599;-78
2023/10/17 12:19:34;;;;;;;2.07;1.97;;;11.20;99.90;;;;;;5072371;28;20301;-77
2023/10/17 12:22:00;;;;;;;1.93;1.83;;;11.20;99.90;;;;;;5072628;28;20224;-78
2023/10/17 12:24:34;;;;;;;2.10;2.00;;;11.30;99.90;;;;;;5073504;28;20190;-78
2023/10/17 12:27:00;;;;;;;2.67;2.47;;;11.30;99.90;;;;;;5077178;28;20155;-77
2023/10/17 12:29:28;;;;;;;2.43;2.30;;;11.20;99.90;;;;;;5087235;28;20185;-76
2023/10/17 12:31:54;;;;;;;2.67;2.00;;;11.20;99.90;;;;;;5091090;28;20164;-77
2023/10/17 12:34:20;;;;;;;1.63;1.63;;;11.20;99.90;;;;;;5088580;28;20187;-78
2023/10/17 12:36:48;;;;;;;1.80;1.70;;;11.00;99.90;;;;;;5077706;28;20229;-77
2023/10/17 12:39:16;;;;;;;1.73;1.63;;;11.00;99.90;;;;;;5090331;28;20653;-78
2023/10/17 12:41:46;;;;;;;1.53;1.47;;;11.20;99.90;;;;;;5073968;28;20190;-76
2023/10/17 12:44:12;;;;;;;1.97;1.63;;;11.00;99.40;;;;;;5083212;28;20236;-77
2023/10/17 12:46:39;;;;;;;1.80;1.70;;;11.00;99.80;;;;;;5076841;28;20187;-77
2023/10/17 12:49:06;;;;;;;1.47;1.47;;;11.00;99.90;;;;;;5072667;28;20173;-78
2023/10/17 12:51:32;;;;;;;1.60;1.50;;;11.10;99.90;;;;;;5072263;28;20268;-76
2023/10/17 12:53:58;;;;;;;1.63;1.63;;;11.20;99.90;;;;;;5071903;28;20700;-75
2023/10/17 12:56:24;;;;;;;2.00;1.67;;;11.20;99.90;;;;;;5071506;28;20206;-79
2023/10/17 12:58:51;;;;;;;1.90;1.80;;;11.20;99.60;;;;;;5071557;28;20634;-77
2023/10/17 13:01:17;;;;;;;1.67;1.63;;;11.40;99.60;;;;;;5071642;28;20193;-78
2023/10/17 13:03:43;;;;;;;1.70;1.60;;;11.50;99.40;;;;;;5071537;28;20178;-78
2023/10/17 13:06:09;;;;;;;3.10;2.80;;;11.60;98.50;;;;;;5086848;28;20186;-77
2023/10/17 13:08:35;;;;;;;1.80;1.70;;;11.60;98.20;;;;;;5073345;28;20202;-77
2023/10/17 13:11:06;;;;;;;1.97;1.60;;;11.50;98.40;;;;;;5074170;28;20570;-76
2023/10/17 13:13:32;;;;;;;3.93;1.70;;;11.60;98.80;;;;;;5075860;28;20267;-76
2023/10/17 13:15:59;;;;;;;1.87;1.77;;;11.60;98.80;;;;;;5097396;28;20237;-77
2023/10/17 13:18:30;;;;;;;2.87;2.00;;;11.50;98.20;;;;;;5077047;28;20171;-76
2023/10/17 13:21:06;;;;;;;1.50;1.40;;;11.60;98.60;;;;;;5076079;28;20593;-77
2023/10/17 13:23:32;;;;;;;1.67;1.57;;;11.60;98.50;;;;;;5075540;28;20167;-77
2023/10/17 13:25:58;;;;;;;1.73;1.43;;;11.30;97.80;;;;;;5075347;28;20676;-77
2023/10/17 13:28:24;;;;;;;1.53;1.47;;;11.40;98.00;;;;;;5090627;28;20267;-78
2023/10/17 13:30:50;;;;;;;1.50;1.40;;;11.40;97.90;;;;;;5075140;28;20179;-77
2023/10/17 13:33:21;;;;;;;1.70;1.60;;;11.40;97.90;;;;;;5074850;28;20171;-78
2023/10/17 13:35:47;;;;;;;1.63;1.53;;;11.30;97.80;;;;;;5074599;28;20203;-79
2023/10/17 13:38:13;;;;;;;1.57;1.50;;;11.30;97.20;;;;;;5074742;28;20171;-78
2023/10/17 13:40:39;;;;;;;4.13;1.73;;;11.20;97.80;;;;;;5074658;28;20268;-79
2023/10/17 13:43:05;;;;;;;1.57;1.47;;;11.30;98.00;;;;;;5056560;28;20271;-78
2023/10/17 13:45:37;;;;;;;2.03;1.77;;;11.30;97.80;;;;;;5076502;28;20230;-79
2023/10/17 13:48:03;;;;;;;1.70;1.60;;;11.40;98.10;;;;;;5076770;28;20220;-78
2023/10/17 13:50:28;;;;;;;1.97;1.83;;;11.40;98.00;;;;;;5075497;28;20179;-77
2023/10/17 13:52:59;;;;;;;1.80;1.70;;;11.50;98.70;;;;;;5074791;28;20212;-78
2023/10/17 13:55:25;;;;;;;1.90;1.70;;;11.60;98.30;;;;;;5074477;28;20234;-77
2023/10/17 13:57:55;;;;;;;1.70;1.60;;;11.70;98.40;;;;;;5074151;28;20305;-76
2023/10/17 14:00:22;;;;;;;2.00;1.70;;;11.80;98.10;;;;;;5074589;28;20599;-76
2023/10/17 14:02:49;;;;;;;1.80;1.70;;;11.80;97.80;;;;;;5079140;28;20183;-77
2023/10/17 14:05:17;;;;;;;1.80;1.50;;;11.70;97.90;;;;;;5090865;28;20193;-78
2023/10/17 14:07:43;;;;;;;1.90;1.67;;;11.60;98.20;;;;;;5082362;28;20193;-78
2023/10/17 14:10:11;;;;;;;1.50;1.40;;;11.80;98.30;;;;;;5089022;28;20176;-77
2023/10/17 14:12:40;;;;;;;1.53;1.43;;;11.80;96.90;;;;;;5074654;28;20190;-78
2023/10/17 14:15:10;;;;;;;3.37;3.17;;;11.80;97.30;;;;;;5074419;28;20187;-78
2023/10/17 14:17:44;;;;;;;4.20;3.87;;;11.80;97.50;;;;;;5074723;28;20210;-79
2023/10/17 14:20:18;;;;;;;2.00;1.83;;;11.70;97.50;;;;;;5074373;28;20282;-77
2023/10/17 14:28:12;;;;;;;1.57;1.47;;;11.70;98.40;;;;;;5074406;28;20264;-78
2023/10/17 14:30:39;;;;;;;1.50;1.40;;;11.70;98.00;;;;;;5056481;28;20249;-76
2023/10/17 14:33:08;;;;;;;1.50;1.40;;;11.60;98.60;;;;;;5076487;28;20187;-77
2023/10/17 14:35:35;;;;;;;1.40;1.40;;;11.50;99.20;;;;;;5074417;28;20682;-76
2023/10/17 14:38:00;;;;;;;1.60;1.50;;;11.50;99.70;;;;;;5078426;28;20171;-77
2023/10/17 14:40:29;;;;;;;1.37;1.37;;;11.60;99.50;;;;;;5077343;28;20534;-77
2023/10/17 14:42:55;;;;;;;1.70;1.60;;;11.60;99.40;;;;;;5075320;28;20651;-77
2023/10/17 14:45:24;;;;;;;1.50;1.50;;;11.70;98.10;;;;;;5073545;28;20176;-79
2023/10/17 14:47:50;;;;;;;1.87;1.77;;;11.70;98.70;;;;;;5074051;28;20180;-78
2023/10/17 14:50:16;;;;;;;2.13;1.60;;;11.70;98.80;;;;;;5073693;28;20550;-77
2023/10/17 14:52:42;;;;;;;1.67;1.57;;;11.60;99.50;;;;;;5073731;28;20175;-79
2023/10/17 14:55:14;;;;;;;1.67;1.60;;;11.50;99.50;;;;;;5073394;28;20203;-78
2023/10/17 14:57:41;;;;;;;2.00;1.90;;;11.40;99.40;;;;;;5072860;28;20633;-78
2023/10/17 15:00:14;;;;;;;1.80;1.70;;;11.30;99.50;;;;;;5073268;28;20180;-78
2023/10/17 15:02:40;;;;;;;1.63;1.63;;;11.30;98.90;;;;;;5073403;28;20173;-80
2023/10/17 15:05:07;;;;;;;1.60;1.57;;;11.30;98.80;;;;;;5073096;28;20268;-79
2023/10/17 15:07:35;;;;;;;1.80;1.70;;;11.20;99.90;;;;;;5073051;28;20187;-77
2023/10/17 15:10:01;;;;;;;1.63;1.53;;;11.10;99.90;;;;;;5073249;28;20202;-78
2023/10/17 15:12:27;;;;;;;1.43;1.43;;;11.10;99.90;;;;;;5079145;28;20202;-77
2023/10/17 15:14:53;;;;;;;1.50;1.47;;;11.00;99.90;;;;;;5082452;28;20163;-77
2023/10/17 15:17:18;;;;;;;1.70;1.60;;;11.00;99.90;;;;;;5073085;28;20249;-77
2023/10/17 15:19:44;;;;;;;2.00;1.90;;;11.00;99.90;;;;;;5072677;28;20219;-78
2023/10/17 15:22:10;;;;;;;2.00;1.90;;;11.00;99.90;;;;;;5072965;28;20241;-78
2023/10/17 15:24:35;;;;;;;6.60;4.93;;;10.90;99.90;;;;;;5072882;28;20535;-78
2023/10/17 15:27:02;;;;;;;2.20;2.10;;;10.90;99.90;;;;;;5088245;28;20178;-79